sensor_id;sensor_type;location;lat;lon;timestamp;pressure;altitude;pressure_sealevel;temperature;humidity
84957;BME280;75252;45.438;-73.814;2024-03-22T00:01:52;101874.56;;;-4.60;42.21
84957;BME280;75252;45.438;-73.814;2024-03-22T00:04:18;101875.59;;;-4.55;40.87
84957;BME280;75252;45.438;-73.814;2024-03-22T00:06:46;101878.94;;;-4.58;41.55
84957;BME280;75252;45.438;-73.814;2024-03-22T00:09:12;101881.31;;;-4.64;41.95
84957;BME280;75252;45.438;-73.814;2024-03-22T00:11:42;101892.56;;;-4.63;42.58
84957;BME280;75252;45.438;-73.814;2024-03-22T00:14:09;101895.03;;;-4.66;42.02
84957;BME280;75252;45.438;-73.814;2024-03-22T00:16:35;101899.38;;;-4.65;42.23
84957;BME280;75252;45.438;-73.814;2024-03-22T00:19:02;101908.75;;;-4.69;40.75
84957;BME280;75252;45.438;-73.814;2024-03-22T00:21:32;101901.66;;;-4.74;42.38
84957;BME280;75252;45.438;-73.814;2024-03-22T00:23:58;101903.16;;;-4.79;41.29
84957;BME280;75252;45.438;-73.814;2024-03-22T00:26:24;101902.13;;;-4.84;42.10
84957;BME280;75252;45.438;-73.814;2024-03-22T00:28:51;101936.50;;;-4.87;41.38
84957;BME280;75252;45.438;-73.814;2024-03-22T00:31:17;101941.84;;;-4.82;41.22
84957;BME280;75252;45.438;-73.814;2024-03-22T00:33:43;101934.06;;;-4.84;41.51
84957;BME280;75252;45.438;-73.814;2024-03-22T00:36:09;101937.44;;;-4.85;42.13
84957;BME280;75252;45.438;-73.814;2024-03-22T00:38:36;101945.03;;;-4.89;41.56
84957;BME280;75252;45.438;-73.814;2024-03-22T00:41:02;101960.47;;;-4.91;41.83
84957;BME280;75252;45.438;-73.814;2024-03-22T00:43:28;101955.03;;;-4.98;43.13
84957;BME280;75252;45.438;-73.814;2024-03-22T00:45:54;101973.06;;;-5.00;42.41
84957;BME280;75252;45.438;-73.814;2024-03-22T00:48:20;101976.41;;;-5.02;41.89
84957;BME280;75252;45.438;-73.814;2024-03-22T00:50:49;101968.47;;;-5.07;42.71
84957;BME280;75252;45.438;-73.814;2024-03-22T00:53:15;101989.09;;;-5.08;43.23
84957;BME280;75252;45.438;-73.814;2024-03-22T00:55:42;102002.06;;;-5.07;42.38
84957;BME280;75252;45.438;-73.814;2024-03-22T00:58:08;101998.56;;;-5.09;42.34
84957;BME280;75252;45.438;-73.814;2024-03-22T01:00:34;102000.28;;;-5.09;41.11
84957;BME280;75252;45.438;-73.814;2024-03-22T01:03:03;102029.41;;;-5.13;41.49
84957;BME280;75252;45.438;-73.814;2024-03-22T01:05:33;102019.00;;;-5.15;41.90
84957;BME280;75252;45.438;-73.814;2024-03-22T01:07:58;102014.28;;;-5.25;42.11
84957;BME280;75252;45.438;-73.814;2024-03-22T01:10:25;102021.25;;;-5.22;42.70
84957;BME280;75252;45.438;-73.814;2024-03-22T01:12:52;102028.91;;;-5.25;42.72
84957;BME280;75252;45.438;-73.814;2024-03-22T01:15:18;102025.38;;;-5.27;42.67
84957;BME280;75252;45.438;-73.814;2024-03-22T01:17:44;102028.06;;;-5.24;42.64
84957;BME280;75252;45.438;-73.814;2024-03-22T01:20:10;102032.25;;;-5.28;42.90
84957;BME280;75252;45.438;-73.814;2024-03-22T01:22:36;102037.34;;;-5.29;42.48
84957;BME280;75252;45.438;-73.814;2024-03-22T01:25:02;102038.75;;;-5.38;42.49
84957;BME280;75252;45.438;-73.814;2024-03-22T01:27:29;102046.44;;;-5.39;42.75
84957;BME280;75252;45.438;-73.814;2024-03-22T01:29:55;102051.59;;;-5.39;43.10
84957;BME280;75252;45.438;-73.814;2024-03-22T01:32:21;102053.94;;;-5.45;42.77
84957;BME280;75252;45.438;-73.814;2024-03-22T01:34:47;102061.69;;;-5.45;43.41
84957;BME280;75252;45.438;-73.814;2024-03-22T01:37:13;102062.47;;;-5.46;42.91
84957;BME280;75252;45.438;-73.814;2024-03-22T01:39:39;102068.47;;;-5.47;43.62
84957;BME280;75252;45.438;-73.814;2024-03-22T01:42:05;102069.13;;;-5.53;44.05
84957;BME280;75252;45.438;-73.814;2024-03-22T01:44:32;102080.19;;;-5.55;44.45
84957;BME280;75252;45.438;-73.814;2024-03-22T01:46:58;102080.06;;;-5.58;44.29
84957;BME280;75252;45.438;-73.814;2024-03-22T01:49:27;102071.44;;;-5.78;44.92
84957;BME280;75252;45.438;-73.814;2024-03-22T01:51:53;102098.16;;;-5.77;44.84
84957;BME280;75252;45.438;-73.814;2024-03-22T01:54:20;102102.38;;;-5.79;45.70
84957;BME280;75252;45.438;-73.814;2024-03-22T01:56:46;102105.00;;;-5.78;44.51
84957;BME280;75252;45.438;-73.814;2024-03-22T01:59:13;102116.09;;;-5.80;45.52
84957;BME280;75252;45.438;-73.814;2024-03-22T02:01:40;102117.34;;;-5.91;44.31
84957;BME280;75252;45.438;-73.814;2024-03-22T02:04:06;102107.56;;;-5.98;45.06
84957;BME280;75252;45.438;-73.814;2024-03-22T02:06:33;102121.09;;;-6.04;45.13
84957;BME280;75252;45.438;-73.814;2024-03-22T02:09:00;102126.94;;;-6.08;44.71
84957;BME280;75252;45.438;-73.814;2024-03-22T02:11:26;102141.31;;;-6.13;45.43
84957;BME280;75252;45.438;-73.814;2024-03-22T02:13:53;102129.00;;;-6.18;45.92
84957;BME280;75252;45.438;-73.814;2024-03-22T02:16:19;102138.38;;;-6.20;45.15
84957;BME280;75252;45.438;-73.814;2024-03-22T02:18:45;102149.53;;;-6.21;46.35
84957;BME280;75252;45.438;-73.814;2024-03-22T02:21:11;102163.81;;;-6.28;45.33
84957;BME280;75252;45.438;-73.814;2024-03-22T02:23:38;102161.56;;;-6.40;46.07
84957;BME280;75252;45.438;-73.814;2024-03-22T02:26:05;102176.22;;;-6.39;47.27
84957;BME280;75252;45.438;-73.814;2024-03-22T02:28:32;102168.47;;;-6.39;46.17
84957;BME280;75252;45.438;-73.814;2024-03-22T02:30:59;102174.22;;;-6.44;45.90
84957;BME280;75252;45.438;-73.814;2024-03-22T02:33:25;102171.06;;;-6.56;45.53
84957;BME280;75252;45.438;-73.814;2024-03-22T02:35:51;102186.81;;;-6.50;46.65
84957;BME280;75252;45.438;-73.814;2024-03-22T02:38:17;102189.03;;;-6.58;46.53
84957;BME280;75252;45.438;-73.814;2024-03-22T02:40:44;102186.94;;;-6.66;46.81
84957;BME280;75252;45.438;-73.814;2024-03-22T02:43:10;102197.06;;;-6.69;47.53
84957;BME280;75252;45.438;-73.814;2024-03-22T02:45:37;102206.19;;;-6.76;47.22
84957;BME280;75252;45.438;-73.814;2024-03-22T02:48:03;102209.59;;;-6.77;46.79
84957;BME280;75252;45.438;-73.814;2024-03-22T02:50:36;102208.09;;;-6.89;46.60
84957;BME280;75252;45.438;-73.814;2024-03-22T02:53:03;102204.78;;;-6.87;47.57
84957;BME280;75252;45.438;-73.814;2024-03-22T02:55:30;102208.84;;;-6.92;46.69
84957;BME280;75252;45.438;-73.814;2024-03-22T02:57:56;102218.09;;;-6.95;47.78
84957;BME280;75252;45.438;-73.814;2024-03-22T03:00:23;102226.41;;;-7.01;47.05
84957;BME280;75252;45.438;-73.814;2024-03-22T03:02:50;102225.50;;;-7.01;46.04
84957;BME280;75252;45.438;-73.814;2024-03-22T03:05:16;102219.25;;;-7.06;45.79
84957;BME280;75252;45.438;-73.814;2024-03-22T03:07:42;102223.28;;;-7.11;45.75
84957;BME280;75252;45.438;-73.814;2024-03-22T03:10:08;102231.56;;;-7.17;45.52
84957;BME280;75252;45.438;-73.814;2024-03-22T03:12:34;102233.09;;;-7.21;46.19
84957;BME280;75252;45.438;-73.814;2024-03-22T03:15:00;102251.97;;;-7.22;46.67
84957;BME280;75252;45.438;-73.814;2024-03-22T03:17:26;102246.56;;;-7.26;44.94
84957;BME280;75252;45.438;-73.814;2024-03-22T03:19:51;102248.97;;;-7.29;46.26
84957;BME280;75252;45.438;-73.814;2024-03-22T03:22:17;102250.28;;;-7.37;47.65
84957;BME280;75252;45.438;-73.814;2024-03-22T03:24:43;102263.63;;;-7.44;47.84
84957;BME280;75252;45.438;-73.814;2024-03-22T03:27:09;102271.09;;;-7.49;47.08
84957;BME280;75252;45.438;-73.814;2024-03-22T03:29:35;102270.22;;;-7.49;47.76
84957;BME280;75252;45.438;-73.814;2024-03-22T03:32:01;102265.47;;;-7.58;47.43
84957;BME280;75252;45.438;-73.814;2024-03-22T03:34:27;102283.56;;;-7.56;48.61
84957;BME280;75252;45.438;-73.814;2024-03-22T03:36:53;102277.13;;;-7.64;45.38
84957;BME280;75252;45.438;-73.814;2024-03-22T03:39:19;102300.84;;;-7.70;46.32
84957;BME280;75252;45.438;-73.814;2024-03-22T03:41:44;102284.72;;;-7.82;46.97
84957;BME280;75252;45.438;-73.814;2024-03-22T03:44:10;102297.84;;;-7.77;45.04
84957;BME280;75252;45.438;-73.814;2024-03-22T03:46:36;102304.53;;;-7.81;46.73
84957;BME280;75252;45.438;-73.814;2024-03-22T03:49:02;102302.66;;;-7.83;47.04
84957;BME280;75252;45.438;-73.814;2024-03-22T03:51:28;102315.03;;;-7.92;47.08
84957;BME280;75252;45.438;-73.814;2024-03-22T03:53:54;102315.81;;;-7.93;46.96
84957;BME280;75252;45.438;-73.814;2024-03-22T03:56:20;102314.78;;;-7.97;45.75
84957;BME280;75252;45.438;-73.814;2024-03-22T03:58:46;102329.22;;;-7.99;45.99
84957;BME280;75252;45.438;-73.814;2024-03-22T04:01:12;102316.09;;;-8.03;45.94
84957;BME280;75252;45.438;-73.814;2024-03-22T04:03:38;102313.53;;;-8.03;46.83
84957;BME280;75252;45.438;-73.814;2024-03-22T04:06:04;102323.66;;;-8.07;46.84
84957;BME280;75252;45.438;-73.814;2024-03-22T04:08:31;102337.84;;;-8.13;45.67
84957;BME280;75252;45.438;-73.814;2024-03-22T04:10:57;102349.75;;;-8.15;46.79
84957;BME280;75252;45.438;-73.814;2024-03-22T04:13:27;102346.38;;;-8.14;46.43
84957;BME280;75252;45.438;-73.814;2024-03-22T04:15:53;102344.09;;;-8.24;46.64
84957;BME280;75252;45.438;-73.814;2024-03-22T04:18:19;102354.94;;;-8.30;45.75
84957;BME280;75252;45.438;-73.814;2024-03-22T04:20:58;102359.13;;;-8.32;46.95
84957;BME280;75252;45.438;-73.814;2024-03-22T04:23:25;102358.38;;;-8.29;45.85
84957;BME280;75252;45.438;-73.814;2024-03-22T04:25:55;102364.25;;;-8.32;46.75
84957;BME280;75252;45.438;-73.814;2024-03-22T04:28:21;102360.78;;;-8.32;46.95
84957;BME280;75252;45.438;-73.814;2024-03-22T04:31:03;102375.94;;;-8.37;47.37
84957;BME280;75252;45.438;-73.814;2024-03-22T04:33:30;102373.00;;;-8.43;47.24
84957;BME280;75252;45.438;-73.814;2024-03-22T04:35:56;102377.91;;;-8.47;47.01
84957;BME280;75252;45.438;-73.814;2024-03-22T04:38:23;102383.84;;;-8.48;46.94
84957;BME280;75252;45.438;-73.814;2024-03-22T04:40:49;102381.97;;;-8.51;46.77
84957;BME280;75252;45.438;-73.814;2024-03-22T04:43:15;102389.66;;;-8.51;45.63
84957;BME280;75252;45.438;-73.814;2024-03-22T04:45:42;102395.44;;;-8.55;46.29
84957;BME280;75252;45.438;-73.814;2024-03-22T04:48:08;102396.41;;;-8.53;47.64
84957;BME280;75252;45.438;-73.814;2024-03-22T04:50:35;102404.72;;;-8.57;46.09
84957;BME280;75252;45.438;-73.814;2024-03-22T04:53:02;102405.25;;;-8.62;46.74
84957;BME280;75252;45.438;-73.814;2024-03-22T04:55:28;102405.09;;;-8.65;46.31
84957;BME280;75252;45.438;-73.814;2024-03-22T04:57:53;102410.84;;;-8.69;45.87
84957;BME280;75252;45.438;-73.814;2024-03-22T05:00:19;102415.00;;;-8.71;46.80
84957;BME280;75252;45.438;-73.814;2024-03-22T05:02:45;102424.22;;;-8.75;47.74
84957;BME280;75252;45.438;-73.814;2024-03-22T05:05:12;102430.03;;;-8.77;47.67
84957;BME280;75252;45.438;-73.814;2024-03-22T05:07:38;102429.16;;;-8.78;46.93
84957;BME280;75252;45.438;-73.814;2024-03-22T05:10:04;102444.41;;;-8.81;48.67
84957;BME280;75252;45.438;-73.814;2024-03-22T05:12:31;102445.28;;;-8.80;48.06
84957;BME280;75252;45.438;-73.814;2024-03-22T05:14:57;102440.94;;;-8.81;47.48
84957;BME280;75252;45.438;-73.814;2024-03-22T05:17:23;102460.41;;;-8.85;48.30
84957;BME280;75252;45.438;-73.814;2024-03-22T05:19:48;102468.22;;;-8.83;49.00
84957;BME280;75252;45.438;-73.814;2024-03-22T05:22:15;102453.03;;;-8.93;47.85
84957;BME280;75252;45.438;-73.814;2024-03-22T05:24:41;102461.03;;;-8.89;48.39
84957;BME280;75252;45.438;-73.814;2024-03-22T05:27:07;102486.50;;;-8.92;47.39
84957;BME280;75252;45.438;-73.814;2024-03-22T05:29:33;102496.78;;;-8.92;47.14
84957;BME280;75252;45.438;-73.814;2024-03-22T05:31:59;102491.78;;;-8.90;47.97
84957;BME280;75252;45.438;-73.814;2024-03-22T05:34:25;102504.31;;;-8.95;48.91
84957;BME280;75252;45.438;-73.814;2024-03-22T05:36:51;102513.00;;;-8.93;49.20
84957;BME280;75252;45.438;-73.814;2024-03-22T05:39:17;102517.69;;;-9.01;49.04
84957;BME280;75252;45.438;-73.814;2024-03-22T05:41:43;102529.81;;;-8.98;48.76
84957;BME280;75252;45.438;-73.814;2024-03-22T05:44:09;102529.94;;;-8.96;49.05
84957;BME280;75252;45.438;-73.814;2024-03-22T05:46:35;102540.81;;;-9.01;48.51
84957;BME280;75252;45.438;-73.814;2024-03-22T05:49:00;102540.09;;;-9.11;48.78
84957;BME280;75252;45.438;-73.814;2024-03-22T05:51:26;102541.56;;;-9.02;48.22
84957;BME280;75252;45.438;-73.814;2024-03-22T05:53:52;102538.91;;;-9.03;47.65
84957;BME280;75252;45.438;-73.814;2024-03-22T05:56:18;102536.94;;;-9.07;48.30
84957;BME280;75252;45.438;-73.814;2024-03-22T05:58:44;102546.03;;;-9.12;49.49
84957;BME280;75252;45.438;-73.814;2024-03-22T06:01:10;102549.97;;;-9.17;49.99
84957;BME280;75252;45.438;-73.814;2024-03-22T06:03:36;102546.13;;;-9.11;49.16
84957;BME280;75252;45.438;-73.814;2024-03-22T06:06:01;102546.72;;;-9.15;49.88
84957;BME280;75252;45.438;-73.814;2024-03-22T06:08:29;102552.47;;;-9.19;49.68
84957;BME280;75252;45.438;-73.814;2024-03-22T06:10:57;102559.34;;;-9.18;49.50
84957;BME280;75252;45.438;-73.814;2024-03-22T06:13:22;102555.91;;;-9.18;48.45
84957;BME280;75252;45.438;-73.814;2024-03-22T06:15:49;102555.78;;;-9.20;49.65
84957;BME280;75252;45.438;-73.814;2024-03-22T06:18:15;102563.91;;;-9.27;49.91
84957;BME280;75252;45.438;-73.814;2024-03-22T06:20:41;102581.69;;;-9.30;48.69
84957;BME280;75252;45.438;-73.814;2024-03-22T06:23:10;102568.66;;;-9.33;48.07
84957;BME280;75252;45.438;-73.814;2024-03-22T06:25:36;102569.03;;;-9.27;48.89
84957;BME280;75252;45.438;-73.814;2024-03-22T06:28:02;102577.25;;;-9.32;49.36
84957;BME280;75252;45.438;-73.814;2024-03-22T06:30:28;102580.59;;;-9.33;48.73
84957;BME280;75252;45.438;-73.814;2024-03-22T06:32:54;102577.94;;;-9.35;47.47
84957;BME280;75252;45.438;-73.814;2024-03-22T06:35:22;102578.59;;;-9.37;48.57
84957;BME280;75252;45.438;-73.814;2024-03-22T06:37:48;102576.94;;;-9.37;50.31
84957;BME280;75252;45.438;-73.814;2024-03-22T06:40:15;102577.63;;;-9.39;48.97
84957;BME280;75252;45.438;-73.814;2024-03-22T06:42:41;102578.31;;;-9.42;49.56
84957;BME280;75252;45.438;-73.814;2024-03-22T06:45:07;102584.81;;;-9.47;49.20
84957;BME280;75252;45.438;-73.814;2024-03-22T06:47:33;102582.84;;;-9.51;48.76
84957;BME280;75252;45.438;-73.814;2024-03-22T06:49:58;102585.63;;;-9.48;49.31
84957;BME280;75252;45.438;-73.814;2024-03-22T06:52:24;102593.09;;;-9.51;48.23
84957;BME280;75252;45.438;-73.814;2024-03-22T06:54:50;102590.44;;;-9.52;49.82
84957;BME280;75252;45.438;-73.814;2024-03-22T06:57:17;102592.59;;;-9.58;50.20
84957;BME280;75252;45.438;-73.814;2024-03-22T06:59:43;102597.94;;;-9.55;49.70
84957;BME280;75252;45.438;-73.814;2024-03-22T07:02:09;102609.56;;;-9.60;49.40
84957;BME280;75252;45.438;-73.814;2024-03-22T07:04:35;102610.16;;;-9.64;49.94
84957;BME280;75252;45.438;-73.814;2024-03-22T07:07:01;102604.72;;;-9.69;49.14
84957;BME280;75252;45.438;-73.814;2024-03-22T07:09:27;102619.22;;;-9.69;48.64
84957;BME280;75252;45.438;-73.814;2024-03-22T07:11:55;102613.28;;;-9.68;48.58
84957;BME280;75252;45.438;-73.814;2024-03-22T07:14:21;102618.34;;;-9.70;48.55
84957;BME280;75252;45.438;-73.814;2024-03-22T07:16:49;102617.56;;;-9.69;48.58
84957;BME280;75252;45.438;-73.814;2024-03-22T07:19:15;102622.28;;;-9.75;48.81
84957;BME280;75252;45.438;-73.814;2024-03-22T07:21:41;102621.97;;;-9.79;48.46
84957;BME280;75252;45.438;-73.814;2024-03-22T07:24:07;102634.31;;;-9.74;48.35
84957;BME280;75252;45.438;-73.814;2024-03-22T07:26:33;102638.34;;;-9.77;48.83
84957;BME280;75252;45.438;-73.814;2024-03-22T07:28:59;102650.19;;;-9.79;48.64
84957;BME280;75252;45.438;-73.814;2024-03-22T07:31:25;102644.63;;;-9.85;49.18
84957;BME280;75252;45.438;-73.814;2024-03-22T07:33:50;102653.31;;;-9.83;48.67
84957;BME280;75252;45.438;-73.814;2024-03-22T07:36:18;102654.00;;;-9.86;49.31
84957;BME280;75252;45.438;-73.814;2024-03-22T07:38:44;102654.00;;;-9.86;48.76
84957;BME280;75252;45.438;-73.814;2024-03-22T07:41:10;102657.94;;;-9.91;49.05
84957;BME280;75252;45.438;-73.814;2024-03-22T07:43:36;102657.25;;;-9.88;49.03
84957;BME280;75252;45.438;-73.814;2024-03-22T07:46:02;102658.81;;;-9.91;48.28
84957;BME280;75252;45.438;-73.814;2024-03-22T07:48:28;102652.28;;;-9.99;48.53
84957;BME280;75252;45.438;-73.814;2024-03-22T07:50:58;102658.69;;;-9.92;49.89
84957;BME280;75252;45.438;-73.814;2024-03-22T07:53:24;102651.22;;;-9.89;48.28
84957;BME280;75252;45.438;-73.814;2024-03-22T07:55:50;102653.03;;;-10.00;49.06
84957;BME280;75252;45.438;-73.814;2024-03-22T07:58:16;102642.78;;;-10.00;48.55
84957;BME280;75252;45.438;-73.814;2024-03-22T08:00:42;102664.78;;;-10.03;49.14
84957;BME280;75252;45.438;-73.814;2024-03-22T08:03:08;102662.09;;;-10.05;48.65
84957;BME280;75252;45.438;-73.814;2024-03-22T08:05:39;102657.19;;;-10.02;49.43
84957;BME280;75252;45.438;-73.814;2024-03-22T08:08:05;102659.22;;;-10.09;50.70
84957;BME280;75252;45.438;-73.814;2024-03-22T08:10:31;102670.16;;;-10.12;50.38
84957;BME280;75252;45.438;-73.814;2024-03-22T08:12:57;102670.38;;;-10.09;49.30
84957;BME280;75252;45.438;-73.814;2024-03-22T08:15:23;102666.09;;;-10.08;49.49
84957;BME280;75252;45.438;-73.814;2024-03-22T08:17:49;102674.03;;;-10.05;47.92
84957;BME280;75252;45.438;-73.814;2024-03-22T08:20:15;102673.75;;;-10.10;48.72
84957;BME280;75252;45.438;-73.814;2024-03-22T08:22:41;102678.06;;;-10.09;48.32
84957;BME280;75252;45.438;-73.814;2024-03-22T08:25:07;102677.09;;;-10.11;48.43
84957;BME280;75252;45.438;-73.814;2024-03-22T08:27:33;102674.78;;;-10.19;48.78
84957;BME280;75252;45.438;-73.814;2024-03-22T08:30:00;102671.31;;;-10.20;47.65
84957;BME280;75252;45.438;-73.814;2024-03-22T08:32:26;102673.22;;;-10.17;49.43
84957;BME280;75252;45.438;-73.814;2024-03-22T08:34:52;102676.56;;;-10.18;48.72
84957;BME280;75252;45.438;-73.814;2024-03-22T08:37:18;102669.31;;;-10.24;50.25
84957;BME280;75252;45.438;-73.814;2024-03-22T08:39:44;102672.88;;;-10.22;49.06
84957;BME280;75252;45.438;-73.814;2024-03-22T08:42:10;102681.72;;;-10.30;49.54
84957;BME280;75252;45.438;-73.814;2024-03-22T08:44:36;102694.97;;;-10.35;50.23
84957;BME280;75252;45.438;-73.814;2024-03-22T08:47:02;102694.22;;;-10.34;49.70
84957;BME280;75252;45.438;-73.814;2024-03-22T08:49:28;102701.00;;;-10.35;50.59
84957;BME280;75252;45.438;-73.814;2024-03-22T08:51:55;102707.59;;;-10.38;50.18
84957;BME280;75252;45.438;-73.814;2024-03-22T08:54:21;102708.59;;;-10.36;49.66
84957;BME280;75252;45.438;-73.814;2024-03-22T08:56:47;102707.78;;;-10.35;49.88
84957;BME280;75252;45.438;-73.814;2024-03-22T08:59:13;102703.22;;;-10.39;51.41
84957;BME280;75252;45.438;-73.814;2024-03-22T09:01:39;102702.13;;;-10.43;50.88
84957;BME280;75252;45.438;-73.814;2024-03-22T09:04:05;102698.91;;;-10.52;50.89
84957;BME280;75252;45.438;-73.814;2024-03-22T09:06:31;102716.06;;;-10.51;49.88
84957;BME280;75252;45.438;-73.814;2024-03-22T09:08:57;102721.19;;;-10.51;50.70
84957;BME280;75252;45.438;-73.814;2024-03-22T09:11:24;102725.44;;;-10.51;50.86
84957;BME280;75252;45.438;-73.814;2024-03-22T09:13:53;102726.84;;;-10.55;50.70
84957;BME280;75252;45.438;-73.814;2024-03-22T09:16:20;102740.47;;;-10.56;51.85
84957;BME280;75252;45.438;-73.814;2024-03-22T09:18:46;102747.59;;;-10.63;52.77
84957;BME280;75252;45.438;-73.814;2024-03-22T09:21:12;102759.63;;;-10.62;52.99
84957;BME280;75252;45.438;-73.814;2024-03-22T09:23:38;102758.97;;;-10.60;51.54
84957;BME280;75252;45.438;-73.814;2024-03-22T09:26:05;102776.56;;;-10.64;52.90
84957;BME280;75252;45.438;-73.814;2024-03-22T09:28:31;102782.22;;;-10.68;51.94
84957;BME280;75252;45.438;-73.814;2024-03-22T09:30:57;102778.22;;;-10.65;51.90
84957;BME280;75252;45.438;-73.814;2024-03-22T09:33:23;102785.03;;;-10.65;52.48
84957;BME280;75252;45.438;-73.814;2024-03-22T09:35:49;102777.34;;;-10.65;51.26
84957;BME280;75252;45.438;-73.814;2024-03-22T09:38:15;102778.75;;;-10.69;51.46
84957;BME280;75252;45.438;-73.814;2024-03-22T09:40:41;102786.25;;;-10.72;52.09
84957;BME280;75252;45.438;-73.814;2024-03-22T09:43:07;102786.59;;;-10.67;51.61
84957;BME280;75252;45.438;-73.814;2024-03-22T09:45:35;102788.34;;;-10.78;50.36
84957;BME280;75252;45.438;-73.814;2024-03-22T09:48:01;102804.91;;;-10.85;52.15
84957;BME280;75252;45.438;-73.814;2024-03-22T09:50:28;102803.03;;;-10.87;52.82
84957;BME280;75252;45.438;-73.814;2024-03-22T09:52:56;102810.19;;;-10.83;53.01
84957;BME280;75252;45.438;-73.814;2024-03-22T09:55:23;102813.28;;;-10.87;51.80
84957;BME280;75252;45.438;-73.814;2024-03-22T09:57:49;102825.56;;;-10.83;51.78
84957;BME280;75252;45.438;-73.814;2024-03-22T10:00:18;102830.84;;;-10.92;53.56
84957;BME280;75252;45.438;-73.814;2024-03-22T10:02:46;102827.75;;;-10.88;52.59
84957;BME280;75252;45.438;-73.814;2024-03-22T10:05:13;102812.94;;;-10.92;52.46
84957;BME280;75252;45.438;-73.814;2024-03-22T10:07:39;102828.31;;;-10.92;52.47
84957;BME280;75252;45.438;-73.814;2024-03-22T10:10:06;102831.41;;;-10.96;53.78
84957;BME280;75252;45.438;-73.814;2024-03-22T10:12:33;102828.84;;;-10.96;53.74
84957;BME280;75252;45.438;-73.814;2024-03-22T10:14:59;102830.81;;;-11.03;53.88
84957;BME280;75252;45.438;-73.814;2024-03-22T10:17:29;102809.97;;;-11.08;53.96
84957;BME280;75252;45.438;-73.814;2024-03-22T10:19:55;102812.66;;;-11.06;55.70
84957;BME280;75252;45.438;-73.814;2024-03-22T10:22:21;102829.03;;;-11.04;54.46
84957;BME280;75252;45.438;-73.814;2024-03-22T10:24:47;102837.72;;;-11.02;54.08
84957;BME280;75252;45.438;-73.814;2024-03-22T10:27:13;102842.72;;;-11.04;54.44
84957;BME280;75252;45.438;-73.814;2024-03-22T10:29:39;102854.41;;;-11.07;53.42
84957;BME280;75252;45.438;-73.814;2024-03-22T10:32:06;102846.72;;;-11.07;53.71
84957;BME280;75252;45.438;-73.814;2024-03-22T10:34:34;102857.50;;;-11.11;55.46
84957;BME280;75252;45.438;-73.814;2024-03-22T10:37:00;102856.28;;;-11.16;53.96
84957;BME280;75252;45.438;-73.814;2024-03-22T10:39:27;102858.84;;;-11.16;54.58
84957;BME280;75252;45.438;-73.814;2024-03-22T10:41:54;102865.63;;;-11.17;53.39
84957;BME280;75252;45.438;-73.814;2024-03-22T10:44:20;102856.56;;;-11.23;53.85
84957;BME280;75252;45.438;-73.814;2024-03-22T10:46:48;102861.69;;;-11.23;53.02
84957;BME280;75252;45.438;-73.814;2024-03-22T10:49:18;102867.22;;;-11.29;53.93
84957;BME280;75252;45.438;-73.814;2024-03-22T10:51:58;102876.66;;;-11.28;54.84
84957;BME280;75252;45.438;-73.814;2024-03-22T10:54:28;102867.22;;;-11.29;55.38
84957;BME280;75252;45.438;-73.814;2024-03-22T10:56:57;102874.25;;;-11.26;55.18
84957;BME280;75252;45.438;-73.814;2024-03-22T10:59:23;102871.88;;;-11.35;56.51
84957;BME280;75252;45.438;-73.814;2024-03-22T11:01:50;102862.53;;;-11.34;55.47
84957;BME280;75252;45.438;-73.814;2024-03-22T11:04:20;102851.75;;;-11.30;56.04
84957;BME280;75252;45.438;-73.814;2024-03-22T11:06:49;102858.66;;;-11.29;57.27
84957;BME280;75252;45.438;-73.814;2024-03-22T11:09:22;102857.00;;;-11.29;55.71
84957;BME280;75252;45.438;-73.814;2024-03-22T11:11:51;102855.81;;;-11.22;56.27
84957;BME280;75252;45.438;-73.814;2024-03-22T11:14:17;102859.22;;;-11.22;56.91
84957;BME280;75252;45.438;-73.814;2024-03-22T11:16:44;102869.19;;;-11.15;56.42
84957;BME280;75252;45.438;-73.814;2024-03-22T11:19:11;102866.97;;;-11.10;54.06
84957;BME280;75252;45.438;-73.814;2024-03-22T11:21:37;102863.09;;;-11.05;53.85
84957;BME280;75252;45.438;-73.814;2024-03-22T11:24:04;102870.72;;;-10.95;54.28
84957;BME280;75252;45.438;-73.814;2024-03-22T11:26:32;102885.97;;;-10.97;53.67
84957;BME280;75252;45.438;-73.814;2024-03-22T11:28:58;102887.31;;;-10.90;54.10
84957;BME280;75252;45.438;-73.814;2024-03-22T11:31:24;102899.84;;;-10.83;52.69
84957;BME280;75252;45.438;-73.814;2024-03-22T11:33:56;102900.84;;;-10.81;52.87
84957;BME280;75252;45.438;-73.814;2024-03-22T11:36:23;102907.44;;;-10.73;53.36
84957;BME280;75252;45.438;-73.814;2024-03-22T11:38:49;102906.78;;;-10.70;53.92
84957;BME280;75252;45.438;-73.814;2024-03-22T11:41:22;102916.28;;;-10.58;54.14
84957;BME280;75252;45.438;-73.814;2024-03-22T11:43:50;102914.09;;;-10.53;53.58
84957;BME280;75252;45.438;-73.814;2024-03-22T11:46:16;102918.63;;;-10.49;53.88
84957;BME280;75252;45.438;-73.814;2024-03-22T11:48:43;102921.66;;;-10.43;50.95
84957;BME280;75252;45.438;-73.814;2024-03-22T11:51:09;102940.97;;;-10.37;50.61
84957;BME280;75252;45.438;-73.814;2024-03-22T11:53:36;102937.50;;;-10.37;50.00
84957;BME280;75252;45.438;-73.814;2024-03-22T11:56:05;102945.75;;;-10.41;49.15
84957;BME280;75252;45.438;-73.814;2024-03-22T11:58:33;102946.53;;;-10.42;48.94
84957;BME280;75252;45.438;-73.814;2024-03-22T12:00:59;102949.31;;;-10.39;48.20
84957;BME280;75252;45.438;-73.814;2024-03-22T12:03:25;102936.19;;;-10.32;49.92
84957;BME280;75252;45.438;-73.814;2024-03-22T12:05:54;102938.13;;;-10.30;48.87
84957;BME280;75252;45.438;-73.814;2024-03-22T12:08:20;102937.44;;;-10.27;47.62
84957;BME280;75252;45.438;-73.814;2024-03-22T12:10:46;102934.56;;;-10.20;49.15
84957;BME280;75252;45.438;-73.814;2024-03-22T12:13:12;102922.41;;;-10.23;49.37
84957;BME280;75252;45.438;-73.814;2024-03-22T12:15:38;102943.13;;;-10.20;49.15
84957;BME280;75252;45.438;-73.814;2024-03-22T12:18:04;102943.56;;;-10.14;48.50
84957;BME280;75252;45.438;-73.814;2024-03-22T12:20:30;102940.25;;;-10.13;50.03
84957;BME280;75252;45.438;-73.814;2024-03-22T12:22:56;102941.91;;;-10.02;48.14